Time;durP1;ratioP1;P1;durP2;ratioP2;P2;SDS_P1;SDS_P2;PMS_P1;PMS_P2;Temp;Humidity;BMP_temperature;BMP_pressure;BME280_temperature;BME280_humidity;BME280_pressure;Samples;Min_cycle;Max_cycle;Signal;HPM_P1;HPM_P2
2022/09/15 00:08:19;;;;;;;5.20;2.47;;;;;;;15.83;100.00;99632.16;30868945;28;20077;-73
2022/09/15 00:23:21;;;;;;;4.33;2.67;;;;;;;15.85;100.00;99618.75;30880341;28;20079;-73
2022/09/15 00:38:23;;;;;;;9.30;5.13;;;;;;;15.93;100.00;99614.47;30883091;28;20395;-73
2022/09/15 00:53:25;;;;;;;5.20;2.90;;;;;;;16.02;100.00;99622.63;30860117;28;20139;-73
2022/09/15 01:08:35;;;;;;;4.43;3.00;;;;;;;16.08;100.00;99619.22;30875897;28;20077;-72
2022/09/15 01:24:05;;;;;;;3.85;2.47;;;;;;;16.07;100.00;99609.50;30862961;28;20467;-73
2022/09/15 01:39:14;;;;;;;2.40;1.85;;;;;;;16.09;100.00;99593.34;30883924;28;20580;-74
2022/09/15 01:54:21;;;;;;;2.73;2.13;;;;;;;16.08;100.00;99589.09;30863965;28;20082;-73
2022/09/15 02:09:37;;;;;;;3.00;2.27;;;;;;;16.07;100.00;99569.19;30851312;28;20521;-72
2022/09/15 02:24:48;;;;;;;5.27;2.23;;;;;;;16.09;100.00;99549.53;30861984;28;20121;-74
2022/09/15 02:39:59;;;;;;;4.03;2.40;;;;;;;16.05;100.00;99554.47;30867433;28;20085;-74
2022/09/15 02:55:01;;;;;;;3.37;2.27;;;;;;;16.09;100.00;99555.03;30855714;28;20552;-74
2022/09/15 03:10:05;;;;;;;3.10;2.30;;;;;;;16.12;100.00;99554.09;30862110;28;20106;-73
2022/09/15 03:25:08;;;;;;;5.13;2.47;;;;;;;16.16;100.00;99549.19;30883807;28;20070;-74
2022/09/15 03:40:10;;;;;;;3.08;2.38;;;;;;;16.22;100.00;99550.81;30888746;28;20100;-73
2022/09/15 03:55:12;;;;;;;2.72;2.05;;;;;;;16.33;100.00;99542.03;30870032;28;20059;-74
2022/09/15 04:10:15;;;;;;;5.53;2.50;;;;;;;16.48;100.00;99542.81;30869847;28;20141;-74
2022/09/15 04:25:17;;;;;;;4.65;2.65;;;;;;;16.79;100.00;99552.56;30876653;28;20058;-74
2022/09/15 04:40:19;;;;;;;3.53;2.50;;;;;;;16.84;100.00;99541.69;30887107;28;20105;-74
2022/09/15 04:55:21;;;;;;;4.75;2.80;;;;;;;17.36;100.00;99537.22;30866573;28;20154;-73
2022/09/15 05:10:23;;;;;;;5.65;2.47;;;;;;;18.00;100.00;99532.78;30882866;28;20051;-75
2022/09/15 05:25:25;;;;;;;6.45;2.90;;;;;;;18.35;100.00;99543.66;30864056;28;20047;-73
2022/09/15 05:40:27;;;;;;;3.85;2.78;;;;;;;18.70;100.00;99549.75;30869376;28;20074;-74
2022/09/15 05:55:29;;;;;;;5.18;2.70;;;;;;;20.15;98.71;99532.56;30873340;28;20054;-74
2022/09/15 06:10:31;;;;;;;6.25;2.50;;;;;;;21.40;93.70;99522.56;30864059;28;20503;-74
2022/09/15 06:25:33;;;;;;;5.82;3.03;;;;;;;22.96;85.42;99512.59;30845500;28;20082;-76
2022/09/15 06:40:35;;;;;;;3.88;2.50;;;;;;;23.53;82.95;99510.75;30859198;28;20074;-74
2022/09/15 06:55:37;;;;;;;5.47;2.27;;;;;;;24.33;79.08;99498.88;30910628;28;20050;-74
2022/09/15 07:10:43;;;;;;;4.87;2.40;;;;;;;23.86;76.64;99513.09;30883620;28;20057;-74
2022/09/15 07:25:45;;;;;;;7.43;2.17;;;;;;;23.78;73.71;99523.31;30869213;28;20388;-85
2022/09/15 07:40:48;;;;;;;6.57;4.23;;;;;;;24.82;71.59;99516.72;30867416;28;20054;-73
2022/09/15 07:55:53;;;;;;;;;;;;;;;23.59;77.85;99508.69;30892902;28;20046;-78
2022/09/15 08:10:55;;;;;;;3.05;2.22;;;;;;;22.68;83.28;99510.78;30888163;28;19969;-82
2022/09/15 08:25:57;;;;;;;5.63;2.90;;;;;;;21.74;87.20;99487.25;30882498;28;20058;-76
2022/09/15 08:41:08;;;;;;;5.35;2.65;;;;;;;20.97;92.18;99466.94;30887939;28;20054;-81
2022/09/15 08:56:16;;;;;;;4.60;3.20;;;;;;;20.77;93.95;99452.19;30895030;28;20078;-77
2022/09/15 09:11:42;;;;;;;5.75;3.45;;;;;;;20.43;97.01;99445.19;30869342;28;20086;-75
2022/09/15 09:26:53;;;;;;;8.55;3.60;;;;;;;20.42;97.73;99427.13;30868609;28;20074;-74
2022/09/15 09:41:55;;;;;;;5.60;3.78;;;;;;;20.60;98.38;99403.78;30873113;28;20562;-74
2022/09/15 09:57:12;;;;;;;6.90;3.97;;;;;;;20.74;97.49;99389.00;30879372;28;20055;-76
2022/09/15 10:12:23;;;;;;;6.07;3.67;;;;;;;21.36;93.95;99368.22;30857300;28;20054;-74
2022/09/15 10:27:33;;;;;;;6.32;3.50;;;;;;;21.38;93.25;99357.41;30871963;28;20046;-75
2022/09/15 10:42:51;;;;;;;5.75;3.47;;;;;;;21.39;93.22;99353.41;30850834;28;20451;-73
2022/09/15 10:58:03;;;;;;;6.10;3.53;;;;;;;21.39;93.05;99302.94;30880873;28;20546;-77
2022/09/15 11:13:24;;;;;;;7.47;3.88;;;;;;;22.00;88.90;99282.38;30864244;28;20050;-73
2022/09/15 11:28:39;;;;;;;5.72;3.33;;;;;;;22.67;83.07;99265.88;30863886;28;20055;-75
2022/09/15 11:44:14;;;;;;;7.68;3.45;;;;;;;22.76;80.39;99290.41;30896066;28;20062;-74
2022/09/15 12:00:11;;;;;;;4.65;3.08;;;;;;;22.44;82.67;99250.78;30868320;28;20368;-73
2022/09/15 12:15:28;;;;;;;7.40;3.35;;;;;;;22.29;84.95;99253.22;30928461;28;20055;-80
2022/09/15 12:30:37;;;;;;;;;;;;;;;22.08;87.30;99237.13;30897907;28;20105;-79
2022/09/15 12:45:42;;;;;;;7.78;3.60;;;;;;;21.83;91.28;99229.28;30883954;28;20484;-78
2022/09/15 13:00:44;;;;;;;8.52;3.97;;;;;;;21.80;93.91;99220.03;30870515;28;20059;-75
2022/09/15 13:16:13;;;;;;;6.63;4.07;;;;;;;21.87;92.47;99208.41;30864391;28;20509;-76
2022/09/15 13:31:29;;;;;;;8.35;3.72;;;;;;;21.62;92.94;99193.09;30911241;28;20106;-77
2022/09/15 13:47:05;;;;;;;7.15;5.07;;;;;;;21.21;99.11;99177.38;30874862;28;20058;-74
2022/09/15 14:02:07;;;;;;;9.73;4.43;;;;;;;21.07;100.00;99145.31;30850027;28;20573;-84
2022/09/15 14:17:26;;;;;;;12.33;4.80;;;;;;;20.88;100.00;99136.19;30869992;28;20047;-74
2022/09/15 14:32:31;;;;;;;12.23;4.47;;;;;;;20.68;100.00;99149.09;30861021;28;20062;-77
2022/09/15 14:47:33;;;;;;;22.73;5.43;;;;;;;20.66;100.00;99121.28;30899029;28;20105;-76
2022/09/15 15:03:12;;;;;;;11.18;4.18;;;;;;;20.68;100.00;99132.53;30852120;28;20138;-74
2022/09/15 15:18:36;;;;;;;8.23;5.22;;;;;;;20.41;100.00;99125.19;30884673;28;20417;-75
2022/09/15 15:33:46;;;;;;;8.25;5.43;;;;;;;19.99;100.00;99135.34;30893906;28;20483;-76
2022/09/15 15:48:49;;;;;;;8.32;5.95;;;;;;;19.67;100.00;99142.44;30878626;28;20059;-77
2022/09/15 16:03:51;;;;;;;13.10;7.20;;;;;;;19.21;100.00;99143.69;30911063;28;20090;-78
2022/09/15 16:18:53;;;;;;;18.10;9.32;;;;;;;19.04;100.00;99148.44;30868700;28;20101;-76
2022/09/15 16:33:55;;;;;;;37.92;22.27;;;;;;;18.95;100.00;99162.44;30879274;28;20047;-77
2022/09/15 16:48:57;;;;;;;19.88;12.93;;;;;;;18.84;100.00;99163.19;30881913;28;20507;-73
2022/09/15 17:04:00;;;;;;;20.20;13.40;;;;;;;18.78;100.00;99142.41;30855063;28;20043;-74
2022/09/15 17:19:02;;;;;;;16.87;13.07;;;;;;;18.79;100.00;99171.41;30859781;28;20407;-74
2022/09/15 17:34:10;;;;;;;13.93;9.98;;;;;;;18.71;100.00;99179.38;30873646;28;20058;-77
2022/09/15 17:49:15;;;;;;;20.83;12.32;;;;;;;18.71;100.00;99193.13;30871951;28;20121;-78
2022/09/15 18:04:17;;;;;;;19.13;10.77;;;;;;;18.77;100.00;99174.66;30871468;28;20062;-78
2022/09/15 18:19:18;;;;;;;53.08;27.83;;;;;;;18.79;100.00;99182.41;30865343;28;20050;-79
2022/09/15 18:34:21;;;;;;;28.13;13.55;;;;;;;18.80;100.00;99183.91;30835133;28;20082;-76
2022/09/15 18:49:23;;;;;;;24.58;14.95;;;;;;;18.79;100.00;99183.16;30887754;28;20082;-76
2022/09/15 19:04:25;;;;;;;22.10;13.80;;;;;;;18.78;100.00;99186.41;30891886;28;20086;-75
2022/09/15 19:19:33;;;;;;;19.98;13.70;;;;;;;18.78;100.00;99178.16;30880218;28;20050;-76
2022/09/15 19:34:37;;;;;;;23.50;14.00;;;;;;;18.79;100.00;99160.41;30871232;28;20121;-76
2022/09/15 19:49:39;;;;;;;108.88;55.78;;;;;;;18.82;100.00;99148.41;30885220;28;20057;-76
2022/09/15 20:04:41;;;;;;;22.70;15.77;;;;;;;18.81;100.00;99149.66;30869494;28;20043;-75
2022/09/15 20:19:43;;;;;;;29.20;17.67;;;;;;;18.74;100.00;99143.41;30877459;28;20049;-76
2022/09/15 20:34:47;;;;;;;25.65;14.95;;;;;;;18.63;100.00;99129.66;30879149;28;20058;-75
2022/09/15 20:49:49;;;;;;;29.40;19.27;;;;;;;18.63;100.00;99137.16;30871085;28;20065;-74
2022/09/15 21:04:51;;;;;;;22.05;15.05;;;;;;;18.65;100.00;99129.91;30867551;28;20368;-76
2022/09/15 21:19:53;;;;;;;18.70;14.57;;;;;;;18.72;100.00;99132.16;30854951;28;20055;-75
2022/09/15 21:34:55;;;;;;;21.63;13.93;;;;;;;18.72;100.00;99123.91;30841821;28;20050;-74
2022/09/15 21:49:57;;;;;;;19.20;14.35;;;;;;;18.69;100.00;99116.66;30835182;28;20055;-75
2022/09/15 22:04:59;;;;;;;23.30;13.02;;;;;;;18.66;100.00;99101.16;30843393;28;20051;-75
2022/09/15 22:20:01;;;;;;;22.40;13.57;;;;;;;18.64;100.00;99084.44;30828848;28;20074;-74
2022/09/15 22:35:04;;;;;;;26.35;15.77;;;;;;;18.56;100.00;99072.38;30844891;28;20105;-75
2022/09/15 22:50:06;;;;;;;26.15;15.48;;;;;;;18.50;100.00;99090.84;30839506;28;20078;-75
2022/09/15 23:05:11;;;;;;;23.10;15.52;;;;;;;18.44;100.00;99092.06;30835868;28;20055;-75
2022/09/15 23:20:13;;;;;;;25.27;17.20;;;;;;;18.37;100.00;99087.84;30833921;28;20062;-76
2022/09/15 23:35:15;;;;;;;23.60;16.33;;;;;;;18.31;100.00;99082.31;30848781;28;20404;-76
2022/09/15 23:50:17;;;;;;;24.90;15.98;;;;;;;18.27;100.00;99090.03;30851183;28;20065;-75
